EmailTwitter


Surface observations / United Kingdom / EGLL (03772)

Regions: Quebec | Canada | USA | Europe | France | UK | Elsewhere
Station
Display
Info & Location for EGLL (03772) | Help decoding METAR

Weather Conditions observed on 2019/04/25 at 06:20 UTC at LONDON/HEATHROW, UK (EGLL)

Sky conditions: few clouds.

Temperature: 12.0 Celsius.

Dewpoint: 8.0 Celsius.

Relative Humidity: 77%

Windchill Factor: 10.

Winds: South-southeast at 20 km/h or 11 knots.

Mean Sea level Pressure: 99.60 kilopascals.

Horizontal visibility: 6.21 statute miles or 9.94 kilometers.

Coded METAR:

EGLL 250620Z AUTO 16011KT 9999 FEW030 12/08 Q0996 NOSIG=